Flight Track Log - Related Links

Times and Time Zones

All times are in EDT time to prevent confusion due to time zone crossing. See the UAL6858 flight status page for this flight to view local times or setup timezone preferences in your user account.

Time Position Orientation Groundspeed Altitude Reporting Facility
EDT Latitude Longitude Course Direction KTS MPH feet Rate Location/Type
Fri 07:37:00 41.9667 -87.9667 180° South 196 226 4,200  Level Chicago TRACON
Fri 07:38:00 41.9000 -87.9667 180° South 243 280 7,300 3,450 Climbing Chicago TRACON
Fri 07:39:00 41.8333 -87.9667 180° South 287 330 11,100 3,318 Climbing Chicago TRACON
Fri 07:40:12 41.7325 -87.9842 187° South 313 360 14,600 2,842 Climbing Chicago Center
Fri 07:41:13 41.6414 -87.9972 186° South 328 377 17,400 3,344 Climbing Chicago Center
Fri 07:42:00 41.4870 -88.2709 180° South  Level Estimated
Fri 07:42:14 41.5242 -88.0136 186° South 351 404 21,400  Level Chicago Center
Fri 07:43:16 41.4422 -88.0250 186° South 360 414 23,000 2,000 Climbing Chicago Center
Fri 07:44:17 41.3331 -88.0558 192° South 373 429 25,500 2,311 Climbing Chicago Center
Fri 07:45:18 41.2264 -88.0908 194° South 390 449 27,700 2,213 Climbing Chicago Center
Fri 07:46:19 41.0931 -88.1286 192° South 406 467 30,000 1,805 Climbing Chicago Center
Fri 07:47:21 40.9794 -88.1617 192° South 418 481 31,400 1,610 Climbing Chicago Center
Fri 07:48:22 40.8642 -88.1981 193° South 426 490 33,300 2,016 Climbing Chicago Center
Fri 07:49:23 40.7644 -88.2672 208° Southwest 406 467 35,500 1,951 Climbing Chicago Center
Fri 07:50:25 40.6639 -88.3372 208° Southwest 406 467 37,300 1,220 Climbing Chicago Center
Fri 07:51:26 40.5653 -88.4058 208° Southwest 404 465 38,000 344 Climbing Chicago Center
Fri 07:52:27 40.4669 -88.4767 209° Southwest 403 464 38,000  Level Chicago Center
Fri 07:53:29 40.3656 -88.5450 207° Southwest 409 471 38,000 -49 Level Chicago Center
Fri 07:54:30 40.2631 -88.6158 208° Southwest 414 476 37,900 -49 Descending Chicago Center
Fri 07:55:32 40.1450 -88.6978 208° Southwest 404 465 37,900  Level Chicago Center
Fri 07:56:21 40.0850 -88.7400 208° Southwest 404 465 37,900 55 Level Kansas City Center
Fri 07:57:22 39.9833 -88.8086 207° Southwest 408 470 38,000 50 Climbing Kansas City Center
Fri 07:58:21 39.8633 -88.8933 208° Southwest 408 470 38,000  Level Kansas City Center
Fri 07:59:22 39.7622 -88.9619 208° Southwest 408 470 38,000  Level Kansas City Center
Fri 08:00:25 39.6619 -89.0297 207° Southwest 406 467 38,000  Level Kansas City Center
Fri 08:01:26 39.5619 -89.0978 208° Southwest 406 467 38,000 -50 Level Kansas City Center
Fri 08:02:25 39.4622 -89.1647 207° Southwest 403 464 37,900  Descending Kansas City Center
Fri 08:03:26 39.3753 -89.2242 208° Southwest 402 463 38,000 49 Climbing Kansas City Center
Fri 08:04:27 39.2558 -89.3050 208° Southwest 403 464 38,000  Level Kansas City Center
Fri 08:05:31 39.1581 -89.3697 207° Southwest 402 463 38,000  Level Kansas City Center
Fri 08:06:32 39.0519 -89.4425 208° Southwest 403 464 38,000  Level Kansas City Center
Fri 08:07:32 38.9536 -89.5069 207° Southwest 398 458 38,000  Level Kansas City Center
Fri 08:08:33 38.8561 -89.5722 208° Southwest 394 453 38,000  Level Kansas City Center
Fri 08:09:32 38.7589 -89.6372 208° Southwest 394 453 38,000  Level Kansas City Center
Fri 08:10:34 38.6656 -89.6992 207° Southwest 394 453 38,000  Level Kansas City Center
Fri 08:11:36 38.5686 -89.7617 207° Southwest 390 449 38,000  Level Kansas City Center
Fri 08:12:37 38.4711 -89.8267 208° Southwest 392 451 38,000  Level Kansas City Center
Fri 08:13:38 38.3581 -89.9000 207° Southwest 398 458 38,000  Level Kansas City Center
Fri 08:14:40 38.2606 -89.9647 208° Southwest 395 455 38,000  Level Kansas City Center
Fri 08:15:40 38.1628 -90.0283 207° Southwest 396 456 38,000  Level Kansas City Center
Fri 08:16:42 38.0550 -90.0972 207° Southwest 401 461 38,000  Level Kansas City Center
Fri 08:17:43 37.9569 -90.1611 207° Southwest 397 457 38,000  Level Kansas City Center
Fri 08:18:44 37.8586 -90.2258 207° Southwest 395 455 38,000  Level Kansas City Center
Fri 08:19:46 37.7586 -90.2881 206° Southwest 398 458 38,000  Level Kansas City Center
Fri 08:20:47 37.6597 -90.3514 207° Southwest 398 458 38,000  Level Kansas City Center
Fri 08:21:48 37.5611 -90.4142 207° Southwest 397 457 38,000  Level Kansas City Center
Fri 08:22:49 37.4625 -90.4792 208° Southwest 398 458 38,000  Level Kansas City Center
Fri 08:23:44 37.3714 -90.5394 208° Southwest 394 453 38,000  Level Memphis Center
Fri 08:24:44 37.2650 -90.6097 208° Southwest 394 453 38,000  Level Memphis Center
Fri 08:25:45 37.1669 -90.6719 207° Southwest 394 453 38,000 -50 Level Memphis Center
Fri 08:26:44 37.0689 -90.7314 206° Southwest 394 453 37,900 -50 Descending Memphis Center
Fri 08:27:44 36.9728 -90.7931 207° Southwest 389 448 37,900 50 Level Memphis Center
Fri 08:28:44 36.8747 -90.8522 206° Southwest 389 448 38,000 50 Climbing Memphis Center
Fri 08:29:44 36.7786 -90.9139 207° Southwest 389 448 38,000  Level Memphis Center
Fri 08:30:44 36.6825 -90.9728 206° Southwest 389 448 38,000  Level Memphis Center
Fri 08:31:44 36.5864 -91.0314 206° Southwest 389 448 38,000  Level Memphis Center
Fri 08:32:44 36.4900 -91.0900 206° Southwest 384 442 38,000 -50 Level Memphis Center
Fri 08:33:44 36.3939 -91.1511 207° Southwest 384 442 37,900  Descending Memphis Center
Fri 08:34:44 36.2975 -91.2067 205° Southwest 389 448 38,000 50 Climbing Memphis Center
Fri 08:35:44 36.1992 -91.2675 207° Southwest 389 448 38,000  Level Memphis Center
Fri 08:36:44 36.1028 -91.3281 207° Southwest 389 448 38,000  Level Memphis Center
Fri 08:37:44 36.0064 -91.3858 206° Southwest 389 448 38,000  Level Memphis Center
Fri 08:38:44 35.9247 -91.4389 208° Southwest 382 440 38,000  Level Memphis Center
Fri 08:39:44 35.8261 -91.4939 204° Southwest 382 440 38,000  Level Memphis Center
Fri 08:40:44 35.7317 -91.5564 208° Southwest 387 445 38,000  Level Memphis Center
Fri 08:41:44 35.6269 -91.6161 205° Southwest 387 445 38,000 -50 Level Memphis Center
Fri 08:42:44 35.5325 -91.6736 206° Southwest 387 445 37,900  Descending Memphis Center
Fri 08:43:44 35.4358 -91.7331 207° Southwest 387 445 38,000 50 Climbing Memphis Center
Fri 08:44:44 35.3392 -91.7900 206° Southwest 387 445 38,000  Level Memphis Center
Fri 08:45:44 35.2425 -91.8469 206° Southwest 387 445 38,000  Level Memphis Center
Fri 08:46:44 35.1439 -91.9011 204° Southwest 387 445 38,000  Level Memphis Center
Fri 08:47:44 35.0514 -91.9603 208° Southwest 387 445 38,000  Level Memphis Center
Fri 08:48:44 34.9567 -92.0167 206° Southwest 387 445 38,000  Level Memphis Center
Fri 08:49:44 34.8581 -92.0731 205° Southwest 387 445 38,000  Level Memphis Center
Fri 08:50:44 34.7633 -92.1292 206° Southwest 387 445 38,000  Level Memphis Center
Fri 08:51:44 34.6667 -92.1753 201° Southwest 387 445 38,000  Level Memphis Center
Fri 08:52:44 34.5536 -92.2056 192° South 392 451 38,000  Level Memphis Center
Fri 08:53:44 34.4447 -92.2208 187° South 401 461 38,000  Level Memphis Center
Fri 08:54:44 34.3317 -92.2461 190° South 407 468 38,000 -50 Level Memphis Center
Fri 08:55:44 34.2208 -92.2661 188° South 407 468 37,900  Descending Memphis Center
Fri 08:56:44 34.1097 -92.2889 190° South 413 475 38,000 -348 Climbing Memphis Center
Fri 08:58:19 33.9511 -92.3183 189° South 393 452 37,000 -774 Descending Fort Worth Center
Fri 08:59:19 33.8433 -92.3372 188° South 393 452 36,000 -500 Descending Fort Worth Center
Fri 09:00:19 33.7378 -92.3583 189° South 393 452 36,000  Level Fort Worth Center
Fri 09:01:19 33.6258 -92.3772 188° South 393 452 36,000 -50 Level Fort Worth Center
Fri 09:02:19 33.5200 -92.3956 188° South 388 447 35,900 -50 Descending Fort Worth Center
Fri 09:03:19 33.4122 -92.4142 188° South 388 447 35,900 50 Level Fort Worth Center
Fri 09:04:19 33.3047 -92.4353 189° South 388 447 36,000 50 Climbing Fort Worth Center
Fri 09:05:19 33.1825 -92.4569 188° South 396 456 36,000  Level Fort Worth Center
Fri 09:06:19 33.0744 -92.4753 188° South 396 456 36,000 -50 Level Fort Worth Center
Fri 09:07:19 32.9628 -92.4964 189° South 402 463 35,900  Descending Fort Worth Center
Fri 09:08:19 32.8550 -92.5147 188° South 402 463 36,000 34 Climbing Fort Worth Center
Fri 09:10:14 32.6442 -92.5569 190° South 396 456 36,000 -34 Level Houston Center
Fri 09:11:15 32.5431 -92.5736 188° South 398 458 35,900 -49 Descending Houston Center
Fri 09:12:17 32.4333 -92.5931 189° South 398 458 35,900  Level Houston Center
Fri 09:13:19 32.3236 -92.6139 189° South 400 460 35,900  Level Houston Center
Fri 09:14:21 32.1908 -92.6369 188° South 402 463 35,900  Level Houston Center
Fri 09:15:22 32.0808 -92.6572 189° South 401 461 35,900  Level Houston Center
Fri 09:16:24 31.9742 -92.6903 195° South 399 459 35,900  Level Houston Center
Fri 09:17:26 31.8867 -92.7586 214° Southwest 383 441 35,900  Level Houston Center
Fri 09:18:28 31.8058 -92.8389 220° Southwest 380 437 35,900  Level Houston Center
Fri 09:19:30 31.7239 -92.9175 219° Southwest 380 437 35,900  Level Houston Center
Fri 09:20:32 31.6431 -92.9961 220° Southwest 379 436 35,900  Level Houston Center
Fri 09:21:33 31.5458 -93.0892 219° Southwest 376 433 35,900  Level Houston Center
Fri 09:22:35 31.4631 -93.1694 220° Southwest 383 441 35,900  Level Houston Center
Fri 09:23:37 31.3822 -93.2472 219° Southwest 380 437 35,900 48 Level Houston Center
Fri 09:24:39 31.2981 -93.3278 219° Southwest 376 433 36,000  Climbing Houston Center
Fri 09:25:41 31.2194 -93.4022 219° Southwest 378 435 35,900 -48 Descending Houston Center
Fri 09:26:43 31.1383 -93.4797 219° Southwest 379 436 35,900  Level Houston Center
Fri 09:27:44 31.0406 -93.5719 219° Southwest 377 434 35,900  Level Houston Center
Fri 09:28:46 30.9600 -93.6486 219° Southwest 377 434 35,900 -145 Level Houston Center
Fri 09:29:48 30.8789 -93.7250 219° Southwest 377 434 35,600 -1,500 Descending Houston Center
Fri 09:30:50 30.7964 -93.8019 219° Southwest 380 437 32,800 -2,758 Descending Houston Center
Fri 09:31:52 30.7139 -93.8808 219° Southwest 385 443 29,900 -2,806 Descending Houston Center
Fri 09:32:54 30.6322 -93.9569 219° Southwest 380 437 27,000 -3,073 Descending Houston Center
Fri 09:33:55 30.5422 -94.0414 219° Southwest 351 404 23,600 -4,226 Descending Houston Center
Fri 09:34:49 30.4750 -94.1047 219° Southwest 334 384 18,900 -3,871 Descending Houston Center
Fri 09:35:59 30.3958 -94.1778 219° Southwest 344 396 15,600 -2,703 Descending Houston Center
Fri 09:36:20 30.3617 -94.2097 219° Southwest 345 397 14,800 -2,323 Descending Houston Center
Fri 09:37:01 30.3242 -94.2453 219° Southwest 334 384 13,200 -2,464 Descending Houston Center
Fri 09:37:16 30.2981 -94.2689 218° Southwest 329 379 12,500 -947 Descending Houston Center
Fri 09:38:17 30.2250 -94.3367 219° Southwest 328 377 12,000 -1,211 Descending Houston Center
Fri 09:39:05 30.1922 -94.4039 241° Southwest 308 354 10,300 -1,727 Descending Houston Center
Fri 09:39:23 30.1844 -94.4364 255° West 309 356 10,100 -387 Descending Houston Center
Fri 09:40:07 30.1756 -94.4944 260° West 296 341 9,900 -113 Descending Houston Center
Fri 09:41:09 30.1600 -94.5853 259° West 289 333 9,900  Level Houston Center
Fri 09:42:11 30.1444 -94.6761 259° West 289 333 9,900  Level Houston Center
Fri 09:43:13 30.1250 -94.7853 258° West 340 391 9,900  Level Houston Center
Fri 09:44:15 30.1047 -94.9256 261° West 366 421 9,900 -242 Level Houston Center
Fri 09:45:17 30.1072 -95.0231 272° West 313 360 9,400 -1,147 Descending Houston Center
Fri 09:46:31 30.1064 -95.1353 270° West 280 322 7,300 -1,548 Descending Houston Center
Fri 09:47:21 30.1072 -95.1983 271° West 276 318 6,200 -750 Descending Houston Center
Fri 09:48:23 30.1072 -95.2800 270° West 259 298 5,900 -145 Descending Houston Center
Fri 09:49:25 30.1072 -95.3792 270° West 258 297 5,900 -864 Level Houston Center
Fri 09:50:28 30.1064 -95.4614 269° West 258 297 4,100 -1,200 Descending Houston Center
Fri 09:51:30 30.0517 -95.4986 210° Southwest 257 296 3,400 -919 Descending Houston Center
Fri 09:52:32 30.0094 -95.4536 137° Southeast 187 215 2,200 -1,161 Descending Houston Center
Fri 09:53:34 30.0069 -95.4033 93° East 127 146 1,000 -968 Descending Houston Center
Fri 09:54:36 30.0072 -95.3644 90° East 124 143 200 -774 Descending Houston Center

Login

Don't have an account? Register now (free) for customized features, flight alerts, and more!